createdAt,value
2019-05-20T00:01:13.372Z,19.20
2019-05-20T00:03:42.323Z,19.07
2019-05-20T00:06:11.357Z,18.63
2019-05-20T00:08:41.438Z,20.83
2019-05-20T00:11:10.465Z,20.27
2019-05-20T00:13:39.401Z,20.20
2019-05-20T00:16:08.370Z,18.73
2019-05-20T00:18:37.316Z,19.50
2019-05-20T00:21:06.273Z,20.10
2019-05-20T00:23:35.221Z,18.33
2019-05-20T00:26:05.158Z,18.17
2019-05-20T00:28:34.156Z,19.17
2019-05-20T00:31:04.184Z,19.83
2019-05-20T00:33:33.127Z,18.77
2019-05-20T00:36:02.105Z,20.40
2019-05-20T00:38:31.135Z,19.13
2019-05-20T00:41:00.182Z,19.37
2019-05-20T00:43:29.143Z,18.93
2019-05-20T00:45:58.088Z,18.83
2019-05-20T00:48:27.023Z,18.40
2019-05-20T00:50:57.048Z,17.77
2019-05-20T00:53:25.996Z,17.13
2019-05-20T00:55:54.957Z,17.30
2019-05-20T00:58:23.911Z,19.03
2019-05-20T01:00:54.771Z,19.20
2019-05-20T01:03:23.738Z,17.43
2019-05-20T01:05:52.706Z,19.37
2019-05-20T01:08:21.664Z,20.33
2019-05-20T01:10:50.613Z,20.43
2019-05-20T01:13:19.558Z,20.87
2019-05-20T01:15:48.514Z,18.83
2019-05-20T01:18:17.475Z,19.17
2019-05-20T01:20:46.423Z,20.57
2019-05-20T01:23:15.376Z,21.23
2019-05-20T01:25:44.318Z,22.03
2019-05-20T01:28:13.265Z,20.73
2019-05-20T01:30:42.228Z,20.60
2019-05-20T01:33:14.192Z,21.07
2019-05-20T01:35:41.835Z,18.83
2019-05-20T01:38:10.837Z,19.67
2019-05-20T01:40:39.827Z,20.57
2019-05-20T01:43:08.784Z,22.40
2019-05-20T01:45:38.685Z,19.53
2019-05-20T01:48:07.631Z,19.80
2019-05-20T01:50:36.584Z,20.63
2019-05-20T01:53:05.534Z,21.20
2019-05-20T01:55:34.507Z,22.47
2019-05-20T01:58:03.469Z,20.87
2019-05-20T02:00:32.426Z,20.67
2019-05-20T02:03:01.368Z,21.23
2019-05-20T02:05:30.345Z,20.90
2019-05-20T02:07:59.379Z,19.80
2019-05-20T02:10:28.329Z,20.50
2019-05-20T02:12:57.300Z,18.33
2019-05-20T02:15:39.932Z,20.17
2019-05-20T02:18:08.889Z,18.77
2019-05-20T02:20:37.843Z,19.87
2019-05-20T02:23:16.344Z,21.27
2019-05-20T02:25:46.893Z,21.33
2019-05-20T02:28:16.129Z,19.93
2019-05-20T02:30:45.092Z,20.33
2019-05-20T02:33:14.142Z,20.87
2019-05-20T02:35:44.159Z,20.10
2019-05-20T02:38:15.151Z,19.70
2019-05-20T02:40:45.064Z,20.10
2019-05-20T02:46:03.306Z,19.50
2019-05-20T02:48:32.266Z,19.03
2019-05-20T02:51:01.208Z,20.53
2019-05-20T02:53:30.173Z,20.47
2019-05-20T02:55:59.304Z,19.73
2019-05-20T02:58:28.360Z,18.07
2019-05-20T03:00:58.220Z,18.93
2019-05-20T03:03:27.200Z,19.97
2019-05-20T03:05:56.136Z,18.90
2019-05-20T03:08:25.095Z,20.37
2019-05-20T03:10:54.045Z,21.47
2019-05-20T03:13:22.999Z,20.77
2019-05-20T03:15:51.947Z,20.97
2019-05-20T03:18:20.977Z,21.33
2019-05-20T03:20:49.924Z,22.87
2019-05-20T03:23:19.143Z,24.80
2019-05-20T03:25:48.088Z,23.80
2019-05-20T03:28:17.048Z,23.50
2019-05-20T03:30:46.061Z,22.47
2019-05-20T03:33:15.033Z,22.03
2019-05-20T03:35:43.968Z,22.90
2019-05-20T03:38:12.924Z,19.87
2019-05-20T03:40:41.874Z,20.87
2019-05-20T03:43:10.830Z,20.90
2019-05-20T03:45:39.787Z,22.47
2019-05-20T03:48:08.761Z,21.83
2019-05-20T03:50:37.705Z,22.33
2019-05-20T03:53:06.671Z,20.23
2019-05-20T03:55:36.668Z,21.47
2019-05-20T03:58:05.625Z,20.77
2019-05-20T04:00:43.379Z,21.00
2019-05-20T04:03:13.856Z,20.40
2019-05-20T04:05:44.058Z,21.90
2019-05-20T04:08:13.175Z,22.17
2019-05-20T04:10:42.135Z,21.03
2019-05-20T04:13:11.104Z,22.17
2019-05-20T04:15:40.066Z,21.50
2019-05-20T04:18:09.031Z,21.60
2019-05-20T04:20:37.971Z,23.00
2019-05-20T04:23:06.933Z,23.23
2019-05-20T04:25:35.884Z,23.90
2019-05-20T04:28:04.839Z,24.67
2019-05-20T04:30:33.804Z,23.70
2019-05-20T04:33:03.767Z,23.40
2019-05-20T04:35:32.706Z,23.17
2019-05-20T04:38:03.672Z,24.27
2019-05-20T04:40:32.626Z,23.43
2019-05-20T04:43:01.581Z,25.90
2019-05-20T04:45:30.614Z,23.97
2019-05-20T04:47:59.567Z,25.07
2019-05-20T04:50:28.589Z,26.30
2019-05-20T04:52:57.538Z,27.23
2019-05-20T04:55:26.477Z,26.27
2019-05-20T04:57:55.437Z,25.97
2019-05-20T05:00:34.823Z,25.40
2019-05-20T05:03:03.800Z,26.53
2019-05-20T05:05:37.761Z,25.63
2019-05-20T05:08:03.400Z,24.53
2019-05-20T05:10:32.352Z,26.83
2019-05-20T05:13:01.338Z,26.40
2019-05-20T05:15:35.373Z,27.40
2019-05-20T05:18:04.332Z,28.23
2019-05-20T05:20:33.295Z,25.97
2019-05-20T05:23:02.248Z,22.80
2019-05-20T05:25:31.196Z,24.47
2019-05-20T05:28:00.170Z,25.40
2019-05-20T05:30:30.126Z,27.37
2019-05-20T05:32:59.090Z,27.87
2019-05-20T05:35:28.027Z,27.47
2019-05-20T05:37:57.108Z,30.37
2019-05-20T05:40:29.556Z,31.43
2019-05-20T05:42:58.552Z,34.90
2019-05-20T05:45:31.174Z,32.90
2019-05-20T05:48:00.282Z,34.87
2019-05-20T05:50:29.228Z,35.20
2019-05-20T05:52:58.176Z,35.73
2019-05-20T05:55:27.128Z,36.60
2019-05-20T05:57:56.277Z,37.17
2019-05-20T06:00:26.369Z,36.63
2019-05-20T06:02:55.324Z,34.87
2019-05-20T06:05:24.282Z,36.03
2019-05-20T06:07:53.242Z,38.10
2019-05-20T06:10:22.356Z,38.83
2019-05-20T06:12:51.370Z,37.50
2019-05-20T06:15:20.469Z,37.33
2019-05-20T06:17:49.437Z,37.73
2019-05-20T06:20:18.398Z,38.50
2019-05-20T06:22:47.384Z,39.33
2019-05-20T06:25:16.621Z,38.27
2019-05-20T06:27:45.632Z,37.30
2019-05-20T06:30:15.937Z,38.17
2019-05-20T06:32:45.203Z,38.97
2019-05-20T06:35:15.626Z,38.23
2019-05-20T06:37:49.450Z,38.30
2019-05-20T06:40:18.495Z,38.77
2019-05-20T06:42:47.448Z,38.53
2019-05-20T06:45:16.557Z,39.33
2019-05-20T06:47:45.518Z,38.60
2019-05-20T06:50:14.484Z,40.37
2019-05-20T06:52:43.423Z,37.60
2019-05-20T06:55:12.443Z,37.13
2019-05-20T06:57:41.396Z,39.37
2019-05-20T07:00:10.753Z,37.67
2019-05-20T07:02:39.779Z,38.67
2019-05-20T07:05:08.907Z,39.27
2019-05-20T07:07:37.855Z,38.33
2019-05-20T07:10:07.716Z,39.27
2019-05-20T07:12:41.099Z,39.17
2019-05-20T07:15:07.556Z,39.97
2019-05-20T07:17:37.863Z,40.00
2019-05-20T07:20:06.821Z,39.13
2019-05-20T07:22:54.527Z,39.10
2019-05-20T07:25:07.769Z,40.90
2019-05-20T07:27:36.715Z,41.20
2019-05-20T07:30:05.953Z,42.30
2019-05-20T07:32:34.961Z,41.23
2019-05-20T07:35:05.454Z,40.17
2019-05-20T07:37:34.433Z,40.57
2019-05-20T07:40:03.910Z,42.67
2019-05-20T07:42:32.847Z,41.53
2019-05-20T07:45:01.836Z,42.77
2019-05-20T07:47:30.901Z,42.27
2019-05-20T07:49:59.942Z,42.80
2019-05-20T07:52:28.884Z,40.70
2019-05-20T07:54:58.328Z,42.90
2019-05-20T07:57:28.848Z,40.43
2019-05-20T07:59:57.981Z,39.57
2019-05-20T08:02:26.925Z,39.10
2019-05-20T08:04:55.967Z,40.47
2019-05-20T08:07:35.582Z,41.40
2019-05-20T08:09:56.710Z,40.33
2019-05-20T08:12:25.667Z,39.20
2019-05-20T08:14:54.632Z,37.97
2019-05-20T08:17:23.594Z,37.70
2019-05-20T08:19:52.545Z,38.47
2019-05-20T08:22:21.500Z,37.60
2019-05-20T08:24:50.485Z,36.88
2019-05-20T08:27:21.998Z,35.80
2019-05-20T08:29:50.951Z,35.90
2019-05-20T08:32:19.905Z,35.90
2019-05-20T08:34:48.848Z,35.92
2019-05-20T08:37:17.825Z,35.88
2019-05-20T08:39:46.837Z,36.03
2019-05-20T08:42:15.812Z,37.55
2019-05-20T08:44:44.747Z,35.70
2019-05-20T08:47:13.724Z,37.35
2019-05-20T08:49:43.343Z,36.90
2019-05-20T08:52:13.097Z,38.40
2019-05-20T08:54:42.208Z,37.63
2019-05-20T08:57:11.152Z,38.05
2019-05-20T08:59:40.099Z,38.10
2019-05-20T09:02:10.023Z,38.35
2019-05-20T09:04:39.028Z,37.42
2019-05-20T09:07:08.041Z,35.40
2019-05-20T09:09:37.081Z,34.20
2019-05-20T09:12:06.205Z,32.67
2019-05-20T09:14:35.288Z,33.02
2019-05-20T09:17:04.246Z,33.35
2019-05-20T09:19:33.189Z,34.78
2019-05-20T09:22:02.242Z,34.35
2019-05-20T09:24:31.295Z,32.58
2019-05-20T09:27:00.252Z,34.38
2019-05-20T09:29:29.200Z,36.42
2019-05-20T09:31:58.239Z,35.98
2019-05-20T09:34:27.177Z,35.92
2019-05-20T09:36:56.135Z,34.78
2019-05-20T09:39:25.154Z,33.55
2019-05-20T09:41:54.107Z,35.48
2019-05-20T09:44:23.132Z,36.95
2019-05-20T09:46:52.165Z,36.33
2019-05-20T09:49:21.127Z,34.60
2019-05-20T09:51:50.093Z,32.35
2019-05-20T09:54:19.036Z,35.17
2019-05-20T09:56:48.008Z,36.68
2019-05-20T09:59:17.014Z,38.67
2019-05-20T10:01:46.041Z,37.93
2019-05-20T10:04:14.972Z,38.63
2019-05-20T10:06:44.038Z,38.58
2019-05-20T10:09:13.053Z,39.53
2019-05-20T10:11:42.016Z,40.23
2019-05-20T10:14:10.974Z,42.25
2019-05-20T10:16:39.940Z,40.85
2019-05-20T10:19:08.910Z,42.00
2019-05-20T10:21:37.922Z,41.05
2019-05-20T10:24:06.879Z,42.10
2019-05-20T10:26:35.901Z,42.20
2019-05-20T10:29:04.896Z,41.90
2019-05-20T10:31:33.854Z,41.08
2019-05-20T10:34:02.809Z,42.93
2019-05-20T10:36:31.759Z,43.85
2019-05-20T10:39:00.722Z,43.68
2019-05-20T10:41:31.149Z,40.45
2019-05-20T10:44:00.101Z,41.92
2019-05-20T10:46:29.056Z,42.70
2019-05-20T10:48:58.014Z,42.80
2019-05-20T10:51:26.977Z,41.00
2019-05-20T10:53:55.957Z,41.58
2019-05-20T10:56:24.917Z,39.00
2019-05-20T10:58:53.890Z,39.40
2019-05-20T11:01:22.833Z,38.83
2019-05-20T11:03:51.828Z,39.30
2019-05-20T11:06:21.847Z,39.98
2019-05-20T11:08:50.792Z,39.20
2019-05-20T11:11:19.751Z,39.48
2019-05-20T11:13:48.710Z,40.65
2019-05-20T11:16:18.409Z,37.55
2019-05-20T11:18:47.437Z,37.28
2019-05-20T11:21:16.388Z,38.42
2019-05-20T11:23:45.362Z,38.40
2019-05-20T11:26:14.387Z,38.20
2019-05-20T11:28:43.337Z,37.35
2019-05-20T11:31:12.284Z,37.23
2019-05-20T11:33:41.283Z,40.63
2019-05-20T11:36:10.263Z,39.50
2019-05-20T11:38:39.222Z,38.05
2019-05-20T11:41:08.169Z,37.42
2019-05-20T11:43:38.292Z,38.83
2019-05-20T11:46:07.241Z,36.23
2019-05-20T11:48:36.206Z,37.70
2019-05-20T11:51:05.311Z,36.73
2019-05-20T11:53:34.410Z,35.65
2019-05-20T11:56:03.356Z,36.48
2019-05-20T11:58:32.310Z,36.03
2019-05-20T12:01:01.276Z,35.00
2019-05-20T12:03:30.293Z,37.08
2019-05-20T12:05:59.257Z,35.25
2019-05-20T12:08:28.212Z,33.23
2019-05-20T12:10:57.152Z,34.73
2019-05-20T12:13:26.588Z,35.15
2019-05-20T12:15:55.534Z,31.35
2019-05-20T12:18:24.475Z,35.23
2019-05-20T12:20:53.467Z,35.17
2019-05-20T12:23:22.468Z,34.20
2019-05-20T12:25:51.424Z,36.28
2019-05-20T12:28:20.400Z,37.70
2019-05-20T12:30:49.367Z,37.35
2019-05-20T12:33:19.622Z,36.25
2019-05-20T12:35:49.002Z,36.42
2019-05-20T12:38:17.973Z,34.92
2019-05-20T12:40:47.287Z,34.15
2019-05-20T12:43:16.259Z,35.92
2019-05-20T12:45:45.195Z,35.05
2019-05-20T12:48:14.150Z,34.08
2019-05-20T12:50:43.093Z,35.10
2019-05-20T12:53:12.078Z,34.88
2019-05-20T12:55:41.024Z,37.35
2019-05-20T12:58:09.994Z,37.05
2019-05-20T13:00:38.953Z,38.70
2019-05-20T13:03:07.905Z,39.53
2019-05-20T13:05:36.870Z,39.33
2019-05-20T13:08:05.939Z,37.55
2019-05-20T13:10:34.970Z,35.52
2019-05-20T13:13:04.014Z,35.38
2019-05-20T13:15:32.966Z,36.03
2019-05-20T13:18:01.939Z,35.78
2019-05-20T13:20:31.027Z,35.35
2019-05-20T13:22:59.995Z,35.55
2019-05-20T13:25:28.965Z,34.43
2019-05-20T13:27:57.904Z,35.03
2019-05-20T13:30:26.927Z,32.90
2019-05-20T13:32:55.873Z,35.15
2019-05-20T13:35:24.891Z,34.43
2019-05-20T13:37:53.870Z,35.05
2019-05-20T13:40:22.866Z,33.90
2019-05-20T13:42:51.924Z,36.42
2019-05-20T13:45:20.916Z,35.65
2019-05-20T13:47:49.849Z,36.03
2019-05-20T13:50:18.989Z,35.88
2019-05-20T13:52:47.924Z,34.15
2019-05-20T13:55:16.959Z,34.38
2019-05-20T13:57:45.949Z,33.67
2019-05-20T14:00:14.983Z,35.38
2019-05-20T14:02:43.964Z,34.00
2019-05-20T14:05:12.930Z,33.05
2019-05-20T14:07:41.889Z,34.25
2019-05-20T14:10:11.015Z,31.82
2019-05-20T14:12:39.980Z,33.28
2019-05-20T14:15:09.112Z,34.45
2019-05-20T14:17:38.125Z,35.58
2019-05-20T14:20:07.346Z,30.72
2019-05-20T14:22:36.295Z,32.70
2019-05-20T14:25:06.625Z,32.95
2019-05-20T14:27:35.560Z,31.17
2019-05-20T14:30:05.839Z,31.40
2019-05-20T14:32:34.961Z,32.85
2019-05-20T14:35:05.389Z,32.75
2019-05-20T14:37:34.375Z,29.72
2019-05-20T14:40:04.234Z,30.85
2019-05-20T14:42:33.190Z,31.65
2019-05-20T14:45:02.159Z,33.28
2019-05-20T14:47:31.172Z,29.07
2019-05-20T14:50:00.142Z,27.95
2019-05-20T14:52:29.084Z,28.52
2019-05-20T14:54:58.051Z,25.97
2019-05-20T14:57:27.006Z,26.80
2019-05-20T14:59:55.992Z,26.00
2019-05-20T15:02:24.952Z,27.30
2019-05-20T15:04:53.901Z,27.82
2019-05-20T15:07:30.369Z,26.75
2019-05-20T15:09:53.540Z,27.58
2019-05-20T15:12:22.484Z,26.93
2019-05-20T15:14:51.448Z,29.48
2019-05-20T15:17:20.403Z,27.55
2019-05-20T15:19:49.369Z,25.10
2019-05-20T15:22:18.316Z,26.73
2019-05-20T15:24:47.371Z,26.50
2019-05-20T15:27:16.320Z,25.68
2019-05-20T15:29:47.257Z,25.35
2019-05-20T15:32:16.206Z,25.23
2019-05-20T15:34:45.166Z,23.47
2019-05-20T15:37:14.198Z,24.12
2019-05-20T15:39:43.174Z,23.15
2019-05-20T15:42:12.121Z,22.05
2019-05-20T15:44:41.086Z,23.18
2019-05-20T15:47:10.062Z,22.37
2019-05-20T15:49:39.190Z,22.55
2019-05-20T15:52:08.360Z,22.62
2019-05-20T15:54:37.314Z,23.05
2019-05-20T15:57:06.261Z,24.43
2019-05-20T15:59:45.434Z,22.13
2019-05-20T16:02:06.006Z,20.12
2019-05-20T16:04:34.963Z,20.90
2019-05-20T16:07:03.939Z,20.95
2019-05-20T16:09:32.896Z,21.62
2019-05-20T16:12:01.883Z,21.07
2019-05-20T16:14:30.916Z,22.45
2019-05-20T16:16:59.878Z,23.30
2019-05-20T16:19:28.900Z,24.10
2019-05-20T16:21:57.870Z,22.20
2019-05-20T16:24:26.951Z,23.22
2019-05-20T16:26:55.907Z,23.55
2019-05-20T16:29:24.856Z,24.05
2019-05-20T16:31:53.817Z,24.05
2019-05-20T16:34:22.778Z,23.60
2019-05-20T16:36:51.757Z,23.52
2019-05-20T16:39:20.717Z,20.45
2019-05-20T16:41:49.672Z,20.75
2019-05-20T16:44:18.697Z,22.90
2019-05-20T16:46:47.726Z,24.02
2019-05-20T16:49:16.665Z,22.60
2019-05-20T16:51:45.644Z,22.50
2019-05-20T16:54:14.601Z,23.67
2019-05-20T16:56:43.572Z,22.42
2019-05-20T16:59:12.517Z,23.32
2019-05-20T17:01:46.262Z,22.95
2019-05-20T17:04:12.200Z,27.85
2019-05-20T17:06:41.230Z,25.55
2019-05-20T17:09:10.222Z,26.10
2019-05-20T17:11:39.284Z,26.48
2019-05-20T17:14:10.538Z,27.13
2019-05-20T17:16:38.936Z,30.48
2019-05-20T17:19:07.930Z,30.02
2019-05-20T17:21:36.890Z,29.10
2019-05-20T17:24:05.920Z,29.05
2019-05-20T17:26:34.954Z,30.72
2019-05-20T17:29:03.907Z,29.90
2019-05-20T17:31:33.022Z,30.97
2019-05-20T17:34:02.031Z,28.35
2019-05-20T17:36:30.983Z,32.33
2019-05-20T17:38:59.953Z,33.92
2019-05-20T17:41:28.988Z,36.03
2019-05-20T17:43:57.954Z,38.17
2019-05-20T17:46:26.988Z,38.05
2019-05-20T17:48:55.970Z,36.68
2019-05-20T17:51:24.955Z,37.85
2019-05-20T17:53:53.901Z,38.40
2019-05-20T17:56:22.864Z,39.78
2019-05-20T17:58:51.814Z,39.18
2019-05-20T18:01:20.784Z,38.15
2019-05-20T18:03:49.736Z,36.53
2019-05-20T18:06:18.742Z,39.67
2019-05-20T18:08:49.333Z,38.78
2019-05-20T18:11:19.285Z,41.90
2019-05-20T18:13:49.363Z,40.15
2019-05-20T18:16:18.327Z,39.70
2019-05-20T18:18:47.273Z,41.50
2019-05-20T18:21:17.148Z,42.33
2019-05-20T18:23:46.100Z,42.53
2019-05-20T18:26:15.094Z,39.90
2019-05-20T18:28:44.028Z,40.08
2019-05-20T18:31:12.981Z,39.05
2019-05-20T18:33:41.961Z,37.03
2019-05-20T18:36:10.918Z,36.33
2019-05-20T18:38:39.895Z,34.27
2019-05-20T18:41:08.905Z,33.78
2019-05-20T18:43:38.819Z,32.35
2019-05-20T18:46:07.778Z,31.37
2019-05-20T18:48:36.728Z,31.37
2019-05-20T18:51:06.648Z,31.70
2019-05-20T18:53:35.596Z,31.23
2019-05-20T18:56:04.550Z,29.72
2019-05-20T18:58:33.523Z,30.27
2019-05-20T19:01:02.480Z,32.20
2019-05-20T19:03:31.807Z,31.70
2019-05-20T19:06:00.821Z,30.55
2019-05-20T19:08:30.802Z,29.90
2019-05-20T19:10:59.842Z,29.72
2019-05-20T19:13:28.855Z,31.20
2019-05-20T19:16:03.996Z,28.95
2019-05-20T19:25:36.898Z,30.70
2019-05-20T19:27:54.038Z,32.30
2019-05-20T19:30:23.068Z,31.15
2019-05-20T19:32:52.029Z,31.42
2019-05-20T19:35:20.973Z,30.35
2019-05-20T19:37:49.995Z,31.02
2019-05-20T19:40:18.943Z,30.70
2019-05-20T19:42:47.979Z,30.97
2019-05-20T19:45:16.988Z,31.30
2019-05-20T19:47:46.033Z,31.65
2019-05-20T19:50:15.056Z,30.72
2019-05-20T19:52:44.060Z,30.70
2019-05-20T19:55:13.147Z,31.48
2019-05-20T19:57:42.105Z,31.33
2019-05-20T20:00:11.456Z,32.45
2019-05-20T20:02:40.413Z,32.35
2019-05-20T20:05:09.939Z,31.00
2019-05-20T20:07:38.961Z,31.12
2019-05-20T20:10:07.985Z,32.10
2019-05-20T20:12:37.013Z,32.25
2019-05-20T20:15:06.254Z,33.10
2019-05-20T20:17:35.303Z,33.70
2019-05-20T20:20:04.934Z,35.45
2019-05-20T20:22:33.941Z,35.73
2019-05-20T20:25:03.162Z,35.38
2019-05-20T20:27:32.208Z,36.40
2019-05-20T20:30:01.237Z,35.65
2019-05-20T20:32:38.014Z,35.68
2019-05-20T20:35:02.191Z,35.75
2019-05-20T20:37:31.150Z,35.90
2019-05-20T20:40:00.120Z,34.40
2019-05-20T20:42:29.137Z,35.13
2019-05-20T20:44:58.098Z,33.75
2019-05-20T20:47:40.743Z,33.67
2019-05-20T20:49:57.713Z,31.42
2019-05-20T20:52:26.665Z,32.50
2019-05-20T20:54:55.618Z,31.90
2019-05-20T20:57:24.581Z,32.88
2019-05-20T20:59:53.598Z,32.25
2019-05-20T21:02:22.553Z,34.78
2019-05-20T21:04:51.517Z,35.55
2019-05-20T21:07:20.460Z,34.92
2019-05-20T21:09:49.434Z,34.65
2019-05-20T21:12:18.395Z,34.73
2019-05-20T21:14:48.460Z,35.60
2019-05-20T21:17:17.472Z,33.92
2019-05-20T21:19:46.433Z,36.83
2019-05-20T21:22:15.445Z,34.23
2019-05-20T21:24:44.455Z,33.67
2019-05-20T21:27:13.416Z,33.38
2019-05-20T21:29:42.446Z,32.35
2019-05-20T21:32:11.414Z,27.13
2019-05-20T21:34:40.467Z,24.95
2019-05-20T21:37:09.467Z,23.77
2019-05-20T21:39:38.423Z,23.40
2019-05-20T21:42:07.466Z,24.30
2019-05-20T21:44:36.479Z,25.17
2019-05-20T21:47:05.427Z,25.08
2019-05-20T21:49:34.387Z,25.65
2019-05-20T21:52:03.336Z,27.62
2019-05-20T21:54:32.381Z,28.32
2019-05-20T21:57:01.324Z,28.20
2019-05-20T21:59:30.288Z,29.45
2019-05-20T22:01:59.301Z,29.15
2019-05-20T22:04:28.260Z,31.43
2019-05-20T22:06:57.209Z,35.50
2019-05-20T22:09:26.206Z,33.50
2019-05-20T22:11:55.199Z,32.30
2019-05-20T22:14:24.144Z,32.97
2019-05-20T22:16:54.159Z,33.00
2019-05-20T22:19:23.113Z,35.17
2019-05-20T22:21:53.706Z,33.87
2019-05-20T22:24:23.611Z,34.07
2019-05-20T22:26:52.566Z,34.00
2019-05-20T22:29:21.526Z,34.27
2019-05-20T22:31:50.472Z,29.30
2019-05-20T22:34:19.437Z,29.87
2019-05-20T22:36:48.363Z,31.73
2019-05-20T22:39:17.315Z,31.67
2019-05-20T22:41:46.279Z,32.03
2019-05-20T22:44:15.227Z,30.43
2019-05-20T22:46:44.172Z,31.83
2019-05-20T22:49:13.153Z,32.03
2019-05-20T22:51:42.090Z,33.17
2019-05-20T22:54:11.385Z,34.23
2019-05-20T22:56:40.444Z,33.37
2019-05-20T22:59:09.384Z,34.03
2019-05-20T23:01:38.422Z,35.77
2019-05-20T23:04:07.363Z,35.70
2019-05-20T23:06:36.315Z,36.13
2019-05-20T23:09:06.294Z,37.67
2019-05-20T23:11:35.248Z,39.43
2019-05-20T23:14:04.291Z,38.27
2019-05-20T23:16:33.342Z,37.93
2019-05-20T23:19:02.288Z,38.70
2019-05-20T23:21:31.232Z,38.37
2019-05-20T23:24:00.180Z,38.03
2019-05-20T23:26:29.152Z,39.07
2019-05-20T23:28:58.103Z,39.10
2019-05-20T23:31:27.141Z,38.50
2019-05-20T23:34:11.453Z,38.10
2019-05-20T23:36:26.754Z,37.60
2019-05-20T23:38:55.715Z,38.60
2019-05-20T23:41:24.664Z,38.27
2019-05-20T23:43:53.621Z,38.63
2019-05-20T23:46:22.572Z,39.97
2019-05-20T23:48:51.607Z,39.00
2019-05-20T23:51:20.572Z,39.70
2019-05-20T23:53:49.517Z,39.40
2019-05-20T23:56:18.480Z,39.50
2019-05-20T23:58:47.692Z,38.20
